Schneifelwetter: Wetterstation Hallschlag, 537 m . NN
Wetterdaten: Freitag, 02.11.2012
Datum Zeit Temp. A. Feuchte A. Luftdruck Regen Wind Richtung Richtung Sonnenschein T Regen Taupunkt Windchill
02.11.2012 00:00 3,5 C 95 % 990 hPa 0,0 l/m 31,2 km/h (5 Bft) SW45 235 0 min 0 min 2,8 C -8,8 C
02.11.2012 00:15 3,5 C 95 % 990 hPa 0,0 l/m 31,5 km/h (5 Bft) W-SW45 245 0 min 0 min 2,8 C -8,9 C
02.11.2012 00:30 3,3 C 95 % 991 hPa 0,3 l/m 33,1 km/h (5 Bft) SW45 235 0 min 15 min 2,6 C -9,6 C
02.11.2012 00:45 3,2 C 95 % 991 hPa 0,0 l/m 31,4 km/h (5 Bft) W-SW45 250 0 min 0 min 2,5 C -9,3 C
02.11.2012 01:00 3,1 C 95 % 991 hPa 0,0 l/m 37,4 km/h (5 Bft) W-SW22.5 255 0 min 0 min 2,4 C -10,8 C
02.11.2012 01:15 2,9 C 95 % 992 hPa 0,0 l/m 30,1 km/h (5 Bft) W22.5 260 0 min 0 min 2,2 C -9,4 C
02.11.2012 01:30 2,9 C 95 % 992 hPa 0,0 l/m 29,0 km/h (5 Bft) SW45 235 0 min 0 min 2,2 C -9,0 C
02.11.2012 01:45 2,8 C 94 % 992 hPa 0,0 l/m 32,0 km/h (5 Bft) SW67.5 225 0 min 0 min 1,9 C -10,0 C
02.11.2012 02:00 2,8 C 94 % 992 hPa 0,0 l/m 41,7 km/h (6 Bft) W-SW45 245 0 min 0 min 1,9 C -12,1 C
02.11.2012 02:15 2,8 C 95 % 992 hPa 0,0 l/m 32,1 km/h (5 Bft) W-SW22.5 250 0 min 0 min 2,1 C -10,0 C
02.11.2012 02:30 2,8 C 95 % 993 hPa 0,0 l/m 36,7 km/h (5 Bft) W-SW45 245 0 min 0 min 2,1 C -11,1 C
02.11.2012 02:45 2,8 C 95 % 993 hPa 0,0 l/m 27,1 km/h (4 Bft) W-SW45 250 0 min 0 min 2,1 C -8,6 C
02.11.2012 03:00 2,7 C 95 % 993 hPa 0,0 l/m 37,9 km/h (5 Bft) W-SW45 240 0 min 0 min 2,0 C -11,5 C
02.11.2012 03:15 2,7 C 95 % 993 hPa 0,6 l/m 35,4 km/h (5 Bft) W-SW67.5 250 0 min 15 min 2,0 C -11,0 C
02.11.2012 03:30 2,7 C 95 % 993 hPa 0,0 l/m 45,4 km/h (6 Bft) W-SW45 255 0 min 0 min 2,0 C -12,9 C
02.11.2012 03:45 2,7 C 95 % 993 hPa 0,0 l/m 40,5 km/h (6 Bft) W-SW45 250 0 min 0 min 2,0 C -12,0 C
02.11.2012 04:00 2,6 C 95 % 993 hPa 0,0 l/m 42,6 km/h (6 Bft) W-SW45 255 0 min 0 min 1,9 C -12,6 C
02.11.2012 04:15 2,5 C 95 % 994 hPa 0,0 l/m 40,4 km/h (6 Bft) W-SW45 240 0 min 0 min 1,8 C -12,3 C
02.11.2012 04:30 2,4 C 95 % 994 hPa 0,0 l/m 40,5 km/h (6 Bft) W-SW45 240 0 min 0 min 1,7 C -12,5 C
02.11.2012 04:45 2,3 C 95 % 994 hPa 0,0 l/m 31,0 km/h (5 Bft) W-SW67.5 245 0 min 0 min 1,6 C -10,4 C
02.11.2012 05:00 2,3 C 95 % 994 hPa 0,0 l/m 31,8 km/h (5 Bft) SW45 230 0 min 0 min 1,6 C -10,7 C
02.11.2012 05:15 2,2 C 95 % 995 hPa 0,0 l/m 33,1 km/h (5 Bft) W-SW45 240 0 min 0 min 1,5 C -11,1 C
02.11.2012 05:30 2,3 C 95 % 995 hPa 0,0 l/m 42,3 km/h (6 Bft) W-SW67.5 250 0 min 0 min 1,6 C -13,0 C
02.11.2012 05:45 2,2 C 94 % 995 hPa 0,0 l/m 39,5 km/h (6 Bft) W-SW45 250 0 min 0 min 1,3 C -12,6 C
02.11.2012 06:00 2,2 C 94 % 995 hPa 0,3 l/m 43,4 km/h (6 Bft) W-SW45 245 0 min 15 min 1,3 C -13,3 C
02.11.2012 06:15 2,2 C 94 % 995 hPa 0,0 l/m 40,6 km/h (6 Bft) SW45 235 0 min 0 min 1,3 C -12,8 C
02.11.2012 06:30 2,2 C 93 % 995 hPa 0,0 l/m 37,2 km/h (5 Bft) W-SW45 240 0 min 0 min 1,2 C -12,1 C
02.11.2012 06:45 2,2 C 93 % 995 hPa 0,0 l/m 44,2 km/h (6 Bft) W-SW45 245 0 min 0 min 1,2 C -13,4 C
02.11.2012 07:00 2,1 C 93 % 995 hPa 0,0 l/m 35,7 km/h (5 Bft) W-SW45 240 0 min 0 min 1,1 C -11,9 C
02.11.2012 07:15 2,2 C 93 % 995 hPa 0,0 l/m 32,4 km/h (5 Bft) W-SW67.5 245 0 min 0 min 1,2 C -11,0 C
02.11.2012 07:30 2,2 C 93 % 996 hPa 0,0 l/m 43,2 km/h (6 Bft) W-SW67.5 240 0 min 0 min 1,2 C -13,3 C
02.11.2012 07:45 2,2 C 93 % 996 hPa 0,0 l/m 33,6 km/h (5 Bft) W-SW45 245 0 min 0 min 1,2 C -11,3 C
02.11.2012 08:00 2,3 C 93 % 996 hPa 0,0 l/m 45,5 km/h (6 Bft) SW67.5 230 0 min 0 min 1,3 C -13,5 C
02.11.2012 08:15 2,3 C 93 % 996 hPa 0,0 l/m 41,0 km/h (6 Bft) W-SW67.5 240 0 min 0 min 1,3 C -12,7 C
02.11.2012 08:30 2,3 C 92 % 996 hPa 0,0 l/m 42,2 km/h (6 Bft) W-SW67.5 250 0 min 0 min 1,1 C -12,9 C
02.11.2012 08:45 2,5 C 92 % 997 hPa 0,0 l/m 38,1 km/h (5 Bft) SW22.5 235 0 min 0 min 1,3 C -11,8 C
02.11.2012 09:00 2,7 C 91 % 997 hPa 0,0 l/m 37,0 km/h (5 Bft) SW67.5 235 0 min 0 min 1,4 C -11,3 C
02.11.2012 09:15 3,1 C 91 % 997 hPa 0,0 l/m 39,5 km/h (6 Bft) SW67.5 230 0 min 0 min 1,8 C -11,2 C
02.11.2012 09:30 3,3 C 90 % 997 hPa 0,0 l/m 38,4 km/h (5 Bft) SW45 230 0 min 0 min 1,8 C -10,7 C
02.11.2012 09:45 3,5 C 89 % 997 hPa 0,0 l/m 52,4 km/h (7 Bft) SW67.5 225 0 min 0 min 1,9 C -12,6 C
02.11.2012 10:00 3,5 C 89 % 997 hPa 0,0 l/m 47,9 km/h (6 Bft) SW45 235 0 min 0 min 1,9 C -12,0 C
02.11.2012 10:15 3,8 C 87 % 997 hPa 0,0 l/m 49,2 km/h (6 Bft) SW45 230 0 min 0 min 1,8 C -11,7 C
02.11.2012 10:30 4,0 C 87 % 997 hPa 0,0 l/m 41,6 km/h (6 Bft) SW45 220 0 min 0 min 2,0 C -10,3 C
02.11.2012 10:45 4,3 C 86 % 998 hPa 0,0 l/m 44,7 km/h (6 Bft) W-SW45 240 0 min 0 min 2,2 C -10,3 C
02.11.2012 11:00 4,5 C 86 % 998 hPa 0,0 l/m 37,2 km/h (5 Bft) SW22.5 215 0 min 0 min 2,4 C -8,7 C
02.11.2012 11:15 4,7 C 86 % 998 hPa 0,0 l/m 39,7 km/h (6 Bft) SW45 235 0 min 0 min 2,6 C -8,9 C
02.11.2012 11:30 5,2 C 86 % 998 hPa 0,0 l/m 42,5 km/h (6 Bft) W-SW67.5 250 0 min 0 min 3,1 C -8,6 C
02.11.2012 11:45 5,6 C 84 % 997 hPa 0,0 l/m 32,6 km/h (5 Bft) W-SW45 240 0 min 0 min 3,1 C -6,2 C
02.11.2012 12:00 5,4 C 84 % 997 hPa 0,0 l/m 31,7 km/h (5 Bft) SW67.5 230 0 min 0 min 2,9 C -6,2 C
02.11.2012 12:15 5,6 C 85 % 997 hPa 0,0 l/m 31,7 km/h (5 Bft) SW45 225 0 min 0 min 3,3 C -5,9 C
02.11.2012 12:30 6,0 C 85 % 997 hPa 0,0 l/m 34,2 km/h (5 Bft) S-SW67.5 210 0 min 0 min 3,7 C -5,9 C
02.11.2012 12:45 5,6 C 85 % 997 hPa 0,0 l/m 35,8 km/h (5 Bft) SW67.5 230 0 min 0 min 3,3 C -6,8 C
02.11.2012 13:00 5,8 C 85 % 997 hPa 0,0 l/m 33,2 km/h (5 Bft) SW45 225 0 min 0 min 3,5 C -6,0 C
02.11.2012 13:15 5,7 C 83 % 997 hPa 0,0 l/m 31,0 km/h (5 Bft) SW45 215 0 min 0 min 3,0 C -5,6 C
02.11.2012 13:30 6,0 C 83 % 997 hPa 0,0 l/m 36,7 km/h (5 Bft) SW45 235 0 min 0 min 3,3 C -6,4 C
02.11.2012 13:45 6,1 C 83 % 997 hPa 0,0 l/m 23,0 km/h (4 Bft) SW45 215 0 min 0 min 3,4 C -2,8 C
02.11.2012 14:00 5,7 C 85 % 997 hPa 0,0 l/m 36,4 km/h (5 Bft) S-SW45 205 0 min 0 min 3,4 C -6,8 C
02.11.2012 14:15 5,3 C 86 % 997 hPa 0,0 l/m 18,8 km/h (3 Bft) SW45 215 0 min 0 min 3,2 C -2,3 C
02.11.2012 14:30 5,1 C 88 % 997 hPa 0,3 l/m 33,5 km/h (5 Bft) S-SW45 210 0 min 15 min 3,3 C -7,1 C
02.11.2012 14:45 4,7 C 89 % 997 hPa 0,0 l/m 36,1 km/h (5 Bft) SW45 220 0 min 0 min 3,0 C -8,2 C
02.11.2012 15:00 4,6 C 90 % 997 hPa 0,0 l/m 21,3 km/h (4 Bft) S-SW45 195 0 min 0 min 3,1 C -4,2 C
02.11.2012 15:15 4,3 C 90 % 997 hPa 0,3 l/m 29,3 km/h (5 Bft) S45 190 0 min 15 min 2,8 C -7,2 C
02.11.2012 15:30 4,2 C 90 % 996 hPa 0,0 l/m 24,5 km/h (4 Bft) S-SW45 210 0 min 0 min 2,7 C -5,9 C
02.11.2012 15:45 4,1 C 91 % 996 hPa 0,0 l/m 27,7 km/h (4 Bft) SW22.5 225 0 min 0 min 2,8 C -7,0 C
02.11.2012 16:00 3,7 C 91 % 996 hPa 0,0 l/m 21,4 km/h (4 Bft) S-SW45 205 0 min 0 min 2,4 C -5,4 C
02.11.2012 16:15 3,6 C 92 % 996 hPa 0,3 l/m 27,8 km/h (4 Bft) SW67.5 225 0 min 15 min 2,4 C -7,7 C
02.11.2012 16:30 3,5 C 92 % 996 hPa 0,6 l/m 25,6 km/h (4 Bft) SW67.5 220 0 min 15 min 2,3 C -7,2 C
02.11.2012 16:45 3,4 C 93 % 996 hPa 0,0 l/m 22,5 km/h (4 Bft) S45 185 0 min 0 min 2,4 C -6,2 C
02.11.2012 17:00 3,3 C 93 % 996 hPa 0,0 l/m 30,1 km/h (5 Bft) SW67.5 215 0 min 0 min 2,3 C -8,8 C
02.11.2012 17:15 3,1 C 94 % 996 hPa 0,3 l/m 23,0 km/h (4 Bft) SW22.5 220 0 min 15 min 2,2 C -6,8 C
02.11.2012 17:30 3,1 C 94 % 996 hPa 0,0 l/m 20,5 km/h (4 Bft) SW45 220 0 min 0 min 2,2 C -5,8 C
02.11.2012 17:45 3,1 C 94 % 995 hPa 0,0 l/m 17,0 km/h (3 Bft) S67.5 190 0 min 0 min 2,2 C -4,3 C
02.11.2012 18:00 3,1 C 95 % 995 hPa 0,0 l/m 17,6 km/h (3 Bft) SW45 215 0 min 0 min 2,4 C -4,6 C
02.11.2012 18:15 3,1 C 95 % 995 hPa 0,0 l/m 12,0 km/h (2 Bft) S-SW22.5 205 0 min 0 min 2,4 C -1,4 C
02.11.2012 18:30 3,3 C 95 % 995 hPa 0,0 l/m 21,3 km/h (4 Bft) SW45 215 0 min 0 min 2,6 C -5,9 C
02.11.2012 18:45 3,4 C 95 % 995 hPa 0,0 l/m 20,3 km/h (4 Bft) S-SW45 210 0 min 0 min 2,7 C -5,4 C
02.11.2012 19:00 3,6 C 96 % 995 hPa 0,0 l/m 22,5 km/h (4 Bft) S-SW45 210 0 min 0 min 3,0 C -6,0 C
02.11.2012 19:15 3,7 C 96 % 995 hPa 0,0 l/m 22,4 km/h (4 Bft) W-SW22.5 255 0 min 0 min 3,1 C -5,8 C
02.11.2012 19:30 3,7 C 96 % 995 hPa 0,0 l/m 20,3 km/h (4 Bft) SW45 225 0 min 0 min 3,1 C -5,0 C
02.11.2012 19:45 3,7 C 96 % 996 hPa 0,0 l/m 27,3 km/h (4 Bft) W-SW45 245 0 min 0 min 3,1 C -7,4 C
02.11.2012 20:00 3,7 C 96 % 996 hPa 0,0 l/m 21,8 km/h (4 Bft) SW45 230 0 min 0 min 3,1 C -5,6 C
02.11.2012 20:15 3,7 C 96 % 996 hPa 0,0 l/m 21,3 km/h (4 Bft) SW22.5 235 0 min 0 min 3,1 C -5,4 C
02.11.2012 20:30 3,7 C 96 % 996 hPa 0,0 l/m 19,3 km/h (3 Bft) W-SW22.5 250 0 min 0 min 3,1 C -4,6 C
02.11.2012 20:45 3,8 C 96 % 996 hPa 0,0 l/m 19,5 km/h (3 Bft) W-SW45 250 0 min 0 min 3,2 C -4,5 C
02.11.2012 21:00 3,9 C 96 % 997 hPa 0,0 l/m 30,4 km/h (5 Bft) W-SW45 240 0 min 0 min 3,3 C -8,0 C
02.11.2012 21:15 3,9 C 96 % 997 hPa 0,0 l/m 28,0 km/h (4 Bft) W-SW45 250 0 min 0 min 3,3 C -7,4 C
02.11.2012 21:30 3,9 C 96 % 997 hPa 0,0 l/m 27,9 km/h (4 Bft) W-SW22.5 250 0 min 0 min 3,3 C -7,3 C
02.11.2012 21:45 3,9 C 96 % 997 hPa 0,0 l/m 37,0 km/h (5 Bft) W45 265 0 min 0 min 3,3 C -9,6 C
02.11.2012 22:00 3,9 C 96 % 998 hPa 0,0 l/m 30,0 km/h (5 Bft) W22.5 260 0 min 0 min 3,3 C -7,9 C
02.11.2012 22:15 3,7 C 96 % 998 hPa 0,0 l/m 33,7 km/h (5 Bft) W-SW22.5 255 0 min 0 min 3,1 C -9,1 C
02.11.2012 22:30 3,7 C 96 % 998 hPa 0,0 l/m 32,4 km/h (5 Bft) W22.5 260 0 min 0 min 3,1 C -8,8 C
02.11.2012 22:45 3,5 C 96 % 999 hPa 0,0 l/m 19,1 km/h (3 Bft) SW22.5 235 0 min 0 min 2,9 C -4,7 C
02.11.2012 23:00 3,4 C 96 % 999 hPa 0,0 l/m 22,7 km/h (4 Bft) W-SW45 245 0 min 0 min 2,8 C -6,3 C
02.11.2012 23:15 3,1 C 95 % 999 hPa 0,0 l/m 29,7 km/h (5 Bft) W-SW45 240 0 min 0 min 2,4 C -9,0 C
02.11.2012 23:30 3,2 C 96 % 999 hPa 0,0 l/m 33,6 km/h (5 Bft) W-SW67.5 250 0 min 0 min 2,6 C -9,8 C
02.11.2012 23:45 3,3 C 96 % 999 hPa 0,0 l/m 40,7 km/h (6 Bft) W-SW45 245 0 min 0 min 2,7 C -11,2 C
02.11.2012 23:54 3,3 C 96 % 999 hPa 0,0 l/m 24,9 km/h (4 Bft) SW45 235 0 min 0 min 2,7 C -7,2 C
_ Min-Zeit 07:00 13:15 00:00 - 18:15 - - - - 07:00 08:00
Minimum _ 2,1 C 83 % 990 hPa - 12,0 km/h (2 Bft) - - - - 1,1 C -13,5 C
_ Max-Zeit 13:45 19:00 22:45 03:15 09:45 - - 00:00 00:30 12:30 18:15
Maximum _ 6,1 C 96 % 999 hPa 0,6 l/m 52,4 km/h
SW (7 Bft)
- - 0 min 15 min 3,7 C -1,4 C
Durchschnitt _ 3,5 C 92 % 996 hPa #3,0 l/m 32,4 km/h (5 Bft) W-SW - #0 min. #2:00 h 2,4 C -8,7 C